Linwood, MI

3:27 AM EDT on September 01, 2015 (GMT -0400)
APRSWXNET | | Change Station
CLOSE
Current Station
Personal Weather Station
Location: Linwood, MI
Elevation: 620 ft
Nearby Weather Stations
Active Advisory: Special Statement

Elev 620 ft 43.74 °N, 83.96 °W | Updated 26 minutes ago

Partly Cloudy
Partly Cloudy
64 °F
Feels Like 64 °F
N
0
Wind Variable Wind from SSW
Gusts 0.0 mph

Today
High -- | Low -- °F
--% Chance of Precip.
Yesterday
High -- | Low -- °F
Precip. -- in
6:59 AM 8:11 PM
Waning Gibbous, 91% visible
Pressure 30.04 in
Visibility 0.2 miles
Clouds Overcast 800 ft
Dew Point 63 °F
Humidity 97%
Rainfall in
Snow Depth Not available.
UV 0 out of 12
Pollen 10.90 out of 12
Air Quality Not available.
Flu Activity Not available.
METAR KIKW 010712Z AUTO 00000KT 1/4SM FG OVC008 16/16 A3004 RMK AO2 T01610157
Pressure 30.04 in
Visibility 0.2 miles
Clouds Overcast 800 ft
Dew Point 63 °F
Humidity 97%
Rainfall in
Snow Depth Not available.
UV 0 out of 12
Pollen 10.90 out of 12
Air Quality Not available.
Flu Activity Not available.
METAR KIKW 010712Z AUTO 00000KT 1/4SM FG OVC008 16/16 A3004 RMK AO2 T01610157

10-Day Weather Forecast

×

Almanac

Astronomy

Sep. 01, 2015 Rise Set
Actual Time
Civil Twilight
Nautical Twilight
Astronomical Twilight
Moon
Length of Visible Light
Length of Day
Tomorrow will be .
, % of the Moon is Illuminated

Today's Extremes

State Highs State Lows

Community

WunderPhotos

Upload Photos

1,851,488 photos uploaded!

WunderBlogs® & News

Nearby

Air Quality

  Air Quality AQ Index Pollutant
Not available.

Snow Depth

Station Depth Elevation

Earthquake Activity

City Distance Mag. Time & Date
Minimum magnitude displayed is 2.5.

Coastal Water Temperatures

Place Temperature

Stations

Nearby Weather Stations

Station Location Temp. Windchill Dew Point Humidity Wind Precip. Elev Updated Type
                   
Special Statement
Statement as of 1:36 AM EDT on September 01, 2015

... Locally dense fog early this morning...

Areas of fog will continue to develop across the region through
the early morning hours. Fog will be locally dense... resulting in
rapid fluctuations in visibility. Visibility of 1/4 mile or less
can be expected at times. These foggy conditions will likely
persist through the morning commute... before gradually lifting.


Mr


136 am EDT Tue Sep 1 2015

... Locally dense fog early this morning...

Areas of fog will continue to develop across the region through
the early morning hours. Fog will be locally dense... resulting in
rapid fluctuations in visibility. Visibility of 1/4 mile or less
can be expected at times. These foggy conditions will likely
persist through the morning commute... before gradually lifting.


Mr